createdAt,value
2023-01-24T00:01:27.383Z,102265.73
2023-01-24T00:03:56.389Z,102262.73
2023-01-24T00:06:24.964Z,102261.48
2023-01-24T00:08:54.655Z,102262.28
2023-01-24T00:11:23.467Z,102260.92
2023-01-24T00:13:52.335Z,102257.73
2023-01-24T00:16:23.023Z,102253.30
2023-01-24T00:18:51.989Z,102255.67
2023-01-24T00:21:25.352Z,102248.94
2023-01-24T00:23:55.408Z,102251.08
2023-01-24T00:26:24.986Z,102254.02
2023-01-24T00:28:54.101Z,102257.52
2023-01-24T00:31:22.915Z,102259.20
2023-01-24T00:33:51.863Z,102259.58
2023-01-24T00:36:20.846Z,102256.51
2023-01-24T00:38:50.164Z,102258.88
2023-01-24T00:41:18.943Z,102258.65
2023-01-24T00:43:47.846Z,102262.70
2023-01-24T00:46:19.425Z,102259.67
2023-01-24T00:48:50.732Z,102265.46
2023-01-24T00:51:20.149Z,102263.13
2023-01-24T00:53:49.245Z,102264.73
2023-01-24T00:56:18.158Z,102267.40
2023-01-24T00:58:48.244Z,102269.89
2023-01-24T01:01:17.019Z,102272.41
2023-01-24T01:03:46.786Z,102278.14
2023-01-24T01:06:17.009Z,102278.67
2023-01-24T01:08:46.745Z,102281.29
2023-01-24T01:11:15.467Z,102285.91
2023-01-24T01:13:44.602Z,102289.11
2023-01-24T01:16:17.767Z,102288.89
2023-01-24T01:18:48.195Z,102289.63
2023-01-24T01:21:19.217Z,102285.62
2023-01-24T01:23:47.995Z,102288.50
2023-01-24T01:26:19.606Z,102290.08
2023-01-24T01:28:48.535Z,102289.10
2023-01-24T01:31:17.681Z,102287.71
2023-01-24T01:33:47.768Z,102288.97
2023-01-24T01:36:17.656Z,102292.05
2023-01-24T01:38:46.365Z,102291.93
2023-01-24T01:41:15.449Z,102293.27
2023-01-24T01:44:04.131Z,102295.85
2023-01-24T01:46:48.746Z,102297.61
2023-01-24T01:49:24.248Z,102297.68
2023-01-24T01:51:58.509Z,102298.51
2023-01-24T01:54:33.884Z,102293.23
2023-01-24T01:57:10.990Z,102293.23
2023-01-24T01:59:46.174Z,102286.27
2023-01-24T02:02:14.760Z,102284.69
2023-01-24T02:04:48.386Z,102287.77
2023-01-24T02:07:22.780Z,102286.77
2023-01-24T02:09:54.893Z,102281.95
2023-01-24T02:12:28.355Z,102281.39
2023-01-24T02:15:27.444Z,102273.29
2023-01-24T02:17:56.342Z,102270.71
2023-01-24T02:20:47.153Z,102270.71
2023-01-24T02:23:28.133Z,102265.20
2023-01-24T02:26:05.708Z,102260.77
2023-01-24T02:28:35.144Z,102257.05
2023-01-24T02:31:05.883Z,102254.41
2023-01-24T02:33:35.491Z,102255.16
2023-01-24T02:36:27.758Z,102255.35
2023-01-24T02:39:03.884Z,102257.80
2023-01-24T02:42:01.817Z,102256.89
2023-01-24T02:44:58.453Z,102255.20
2023-01-24T02:47:33.658Z,102253.95
2023-01-24T02:50:03.244Z,102251.02
2023-01-24T02:52:50.681Z,102252.80
2023-01-24T02:55:21.458Z,102243.73
2023-01-24T02:58:09.001Z,102244.39
2023-01-24T03:00:41.886Z,102247.17
2023-01-24T03:03:11.781Z,102247.01
2023-01-24T03:05:59.230Z,102243.70
2023-01-24T03:08:35.625Z,102243.67
2023-01-24T03:11:07.972Z,102244.43
2023-01-24T03:13:58.233Z,102245.42
2023-01-24T03:16:45.622Z,102250.44
2023-01-24T03:19:33.603Z,102250.39
2023-01-24T03:22:21.552Z,102253.98
2023-01-24T03:25:08.658Z,102255.13
2023-01-24T03:27:56.905Z,102258.66
2023-01-24T03:30:48.550Z,102261.10
2023-01-24T03:33:36.660Z,102261.27
2023-01-24T03:36:07.901Z,102259.63
2023-01-24T03:38:56.582Z,102262.68
2023-01-24T03:41:25.971Z,102261.70
2023-01-24T03:43:55.055Z,102264.00
2023-01-24T03:46:23.636Z,102264.86
2023-01-24T03:48:53.889Z,102266.09
2023-01-24T03:51:47.756Z,102262.84
2023-01-24T03:54:17.042Z,102265.73
2023-01-24T03:57:14.902Z,102264.58
2023-01-24T03:59:43.802Z,102260.59
2023-01-24T04:02:12.801Z,102265.58
2023-01-24T04:05:01.643Z,102262.34
2023-01-24T04:07:31.877Z,102263.86
2023-01-24T04:10:03.216Z,102261.02
2023-01-24T04:12:36.324Z,102266.66
2023-01-24T04:15:06.325Z,102265.55
2023-01-24T04:17:35.327Z,102264.15
2023-01-24T04:20:06.363Z,102264.22
2023-01-24T04:22:35.540Z,102267.41
2023-01-24T04:25:05.914Z,102265.79
2023-01-24T04:27:35.251Z,102266.38
2023-01-24T04:30:12.732Z,102264.61
2023-01-24T04:32:42.382Z,102269.52
2023-01-24T04:35:22.017Z,102270.95
2023-01-24T04:37:53.085Z,102270.96
2023-01-24T04:40:44.283Z,102274.66
2023-01-24T04:43:13.284Z,102275.08
2023-01-24T04:45:42.448Z,102277.43
2023-01-24T04:48:12.708Z,102279.58
2023-01-24T04:50:41.689Z,102283.38
2023-01-24T04:53:10.875Z,102283.56
2023-01-24T04:55:39.984Z,102283.55
2023-01-24T04:58:09.083Z,102285.52
2023-01-24T05:00:37.871Z,102286.60
2023-01-24T05:03:06.823Z,102295.00
2023-01-24T05:05:36.261Z,102292.20
2023-01-24T05:08:05.651Z,102291.79
2023-01-24T05:10:35.056Z,102293.63
2023-01-24T05:13:04.273Z,102292.44
2023-01-24T05:15:33.264Z,102295.14
2023-01-24T05:18:03.184Z,102294.27
2023-01-24T05:20:32.193Z,102296.39
2023-01-24T05:23:01.865Z,102296.56
2023-01-24T05:25:31.264Z,102299.63
2023-01-24T05:28:00.051Z,102300.44
2023-01-24T05:30:29.163Z,102303.31
2023-01-24T05:33:01.941Z,102303.70
2023-01-24T05:35:31.794Z,102304.75
2023-01-24T05:38:01.585Z,102304.83
2023-01-24T05:40:30.542Z,102309.59
2023-01-24T05:42:59.744Z,102310.14
2023-01-24T05:45:28.936Z,102310.17
2023-01-24T05:47:58.793Z,102307.90
2023-01-24T05:50:27.440Z,102309.52
2023-01-24T05:53:12.708Z,102307.11
2023-01-24T05:55:41.509Z,102307.88
2023-01-24T05:58:10.102Z,102311.48
2023-01-24T06:01:17.133Z,102312.23
2023-01-24T06:03:48.506Z,102313.20
2023-01-24T06:06:22.124Z,102320.07
2023-01-24T06:08:51.831Z,102319.84
2023-01-24T06:11:26.049Z,102321.66
2023-01-24T06:14:04.866Z,102320.67
2023-01-24T06:16:33.970Z,102324.90
2023-01-24T06:19:04.283Z,102328.34
2023-01-24T06:21:39.208Z,102327.64
2023-01-24T06:24:19.382Z,102330.22
2023-01-24T06:26:56.653Z,102327.14
2023-01-24T06:29:25.775Z,102327.39
2023-01-24T06:32:23.609Z,102324.49
2023-01-24T06:35:10.956Z,102330.17
2023-01-24T06:37:50.171Z,102333.02
2023-01-24T06:40:21.232Z,102335.13
2023-01-24T06:42:51.247Z,102341.35
2023-01-24T06:45:22.054Z,102341.36
2023-01-24T06:47:52.707Z,102346.88
2023-01-24T06:50:23.131Z,102345.60
2023-01-24T06:52:52.545Z,102350.23
2023-01-24T06:55:22.649Z,102352.80
2023-01-24T06:57:59.324Z,102352.89
2023-01-24T07:00:32.935Z,102357.63
2023-01-24T07:03:03.706Z,102360.92
2023-01-24T07:05:33.383Z,102362.57
2023-01-24T07:08:04.104Z,102370.16
2023-01-24T07:10:33.492Z,102371.73
2023-01-24T07:13:02.306Z,102369.77
2023-01-24T07:15:31.480Z,102376.73
2023-01-24T07:18:07.051Z,102374.71
2023-01-24T07:20:35.912Z,102376.27
2023-01-24T07:23:05.038Z,102375.93
2023-01-24T07:25:36.353Z,102375.51
2023-01-24T07:28:05.791Z,102378.11
2023-01-24T07:30:34.468Z,102373.86
2023-01-24T07:33:03.456Z,102367.70
2023-01-24T07:35:32.941Z,102370.34
2023-01-24T07:38:02.242Z,102375.65
2023-01-24T07:40:30.929Z,102376.08
2023-01-24T07:43:03.703Z,102375.98
2023-01-24T07:45:34.232Z,102374.92
2023-01-24T07:48:03.433Z,102380.45
2023-01-24T07:50:32.742Z,102380.56
2023-01-24T07:53:01.835Z,102381.67
2023-01-24T07:55:30.716Z,102384.38
2023-01-24T07:58:03.838Z,102384.62
2023-01-24T08:00:32.643Z,102385.71
2023-01-24T08:03:03.922Z,102383.70
2023-01-24T08:05:32.855Z,102386.29
2023-01-24T08:08:01.582Z,102383.39
2023-01-24T08:10:34.019Z,102386.13
2023-01-24T08:13:03.106Z,102382.55
2023-01-24T08:15:32.125Z,102382.68
2023-01-24T08:18:03.552Z,102379.33
2023-01-24T08:20:33.137Z,102383.92
2023-01-24T08:23:02.248Z,102384.05
2023-01-24T08:25:33.330Z,102380.58
2023-01-24T08:28:02.066Z,102383.05
2023-01-24T08:30:31.155Z,102379.35
2023-01-24T08:33:05.398Z,102379.42
2023-01-24T08:35:34.580Z,102380.04
2023-01-24T08:38:03.674Z,102383.43
2023-01-24T08:40:40.876Z,102388.30
2023-01-24T08:43:14.409Z,102388.10
2023-01-24T08:45:44.509Z,102389.73
2023-01-24T08:48:13.882Z,102391.62
2023-01-24T08:50:45.004Z,102394.11
2023-01-24T08:53:14.211Z,102390.00
2023-01-24T08:55:43.334Z,102390.71
2023-01-24T08:58:12.154Z,102391.14
2023-01-24T09:00:41.507Z,102391.54
2023-01-24T09:03:11.816Z,102394.63
2023-01-24T09:05:40.640Z,102395.12
2023-01-24T09:08:10.423Z,102398.44
2023-01-24T09:10:40.660Z,102401.10
2023-01-24T09:13:10.041Z,102404.20
2023-01-24T09:15:38.834Z,102404.19
2023-01-24T09:18:07.724Z,102405.33
2023-01-24T09:20:37.019Z,102404.23
2023-01-24T09:23:14.139Z,102406.54
2023-01-24T09:25:43.528Z,102407.27
2023-01-24T09:28:12.196Z,102406.85
2023-01-24T09:30:40.989Z,102408.96
2023-01-24T09:33:09.879Z,102406.55
2023-01-24T09:35:38.962Z,102406.40
2023-01-24T09:38:08.067Z,102404.90
2023-01-24T09:40:45.388Z,102407.03
2023-01-24T09:43:39.171Z,102408.37
2023-01-24T09:46:40.165Z,102406.79
2023-01-24T09:49:09.876Z,102407.11
2023-01-24T09:51:44.811Z,102403.10
2023-01-24T09:54:23.453Z,102403.78
2023-01-24T09:56:52.924Z,102402.88
2023-01-24T09:59:44.044Z,102398.87
2023-01-24T10:02:19.648Z,102399.40
2023-01-24T10:04:50.424Z,102398.20
2023-01-24T10:07:47.064Z,102396.63
2023-01-24T10:10:29.163Z,102394.45
2023-01-24T10:13:18.235Z,102389.08
2023-01-24T10:16:10.371Z,102386.59
2023-01-24T10:18:48.152Z,102382.07
2023-01-24T10:21:26.266Z,102381.10
2023-01-24T10:23:59.899Z,102377.52
2023-01-24T10:26:51.892Z,102374.98
2023-01-24T10:29:23.146Z,102368.75
2023-01-24T10:31:58.465Z,102366.73
2023-01-24T10:34:35.918Z,102368.77
2023-01-24T10:37:12.242Z,102363.80
2023-01-24T10:39:41.244Z,102363.96
2023-01-24T10:42:25.714Z,102361.52
2023-01-24T10:45:02.161Z,102361.30
2023-01-24T10:47:51.217Z,102359.09
2023-01-24T10:50:20.416Z,102364.26
2023-01-24T10:52:51.152Z,102362.20
2023-01-24T10:55:39.797Z,102358.64
2023-01-24T10:58:36.873Z,102360.56
2023-01-24T11:01:20.656Z,102355.30
2023-01-24T11:03:51.971Z,102357.92
2023-01-24T11:06:41.412Z,102357.66
2023-01-24T11:09:17.987Z,102356.31
2023-01-24T11:11:53.732Z,102354.41
2023-01-24T11:14:27.968Z,102354.73
2023-01-24T11:16:59.179Z,102354.30
2023-01-24T11:19:32.806Z,102344.42
2023-01-24T11:22:21.644Z,102346.39
2023-01-24T11:24:53.206Z,102345.70
2023-01-24T11:27:23.323Z,102340.73
2023-01-24T11:30:07.501Z,102341.80
2023-01-24T11:32:52.940Z,102340.06
2023-01-24T11:35:27.908Z,102341.67
2023-01-24T11:38:15.707Z,102340.23
2023-01-24T11:41:10.405Z,102337.11
2023-01-24T11:44:06.539Z,102335.82
2023-01-24T11:46:51.672Z,102334.98
2023-01-24T11:49:52.215Z,102338.32
2023-01-24T11:53:00.595Z,102339.83
2023-01-24T11:55:41.239Z,102340.48
2023-01-24T11:58:38.082Z,102338.89
2023-01-24T12:01:19.264Z,102341.73
2023-01-24T12:04:19.466Z,102339.27
2023-01-24T12:07:20.520Z,102338.83
2023-01-24T12:09:54.059Z,102336.38
2023-01-24T12:12:36.653Z,102335.76
2023-01-24T12:15:27.647Z,102339.34
2023-01-24T12:18:30.525Z,102336.81
2023-01-24T12:21:10.577Z,102333.23
2023-01-24T12:23:42.994Z,102331.02
2023-01-24T12:26:18.575Z,102327.98
2023-01-24T12:28:55.121Z,102325.89
2023-01-24T12:31:47.691Z,102322.80
2023-01-24T12:35:00.768Z,102319.91
2023-01-24T12:37:29.570Z,102318.27
2023-01-24T12:40:13.470Z,102324.34
2023-01-24T12:42:45.446Z,102320.75
2023-01-24T12:45:22.102Z,102320.05
2023-01-24T12:47:56.889Z,102323.93
2023-01-24T12:50:53.211Z,102324.66
2023-01-24T12:53:38.882Z,102328.05
2023-01-24T12:56:49.471Z,102328.46
2023-01-24T12:59:25.091Z,102324.95
2023-01-24T13:02:20.246Z,102324.91
2023-01-24T13:05:04.438Z,102324.79
2023-01-24T13:08:12.223Z,102328.33
2023-01-24T13:10:56.363Z,102330.69
2023-01-24T13:13:29.628Z,102330.09
2023-01-24T13:16:25.938Z,102329.17
2023-01-24T13:19:10.329Z,102328.98
2023-01-24T13:21:53.663Z,102329.52
2023-01-24T13:25:02.298Z,102327.09
2023-01-24T13:27:41.244Z,102323.48
2023-01-24T13:30:22.397Z,102321.83
2023-01-24T13:32:52.290Z,102325.30
2023-01-24T13:35:26.527Z,102325.23
2023-01-24T13:38:16.610Z,102321.98
2023-01-24T13:41:27.805Z,102322.55
2023-01-24T13:44:05.546Z,102322.52
2023-01-24T13:46:45.993Z,102318.23
2023-01-24T13:49:19.301Z,102318.95
2023-01-24T13:51:50.458Z,102318.27
2023-01-24T13:54:22.299Z,102323.96
2023-01-24T13:57:20.137Z,102320.17
2023-01-24T14:00:24.162Z,102321.84
2023-01-24T14:02:53.743Z,102323.98
2023-01-24T14:05:31.457Z,102328.09
2023-01-24T14:08:03.291Z,102328.44
2023-01-24T14:10:38.735Z,102333.37
2023-01-24T14:13:46.021Z,102330.06
2023-01-24T14:16:28.852Z,102330.36
2023-01-24T14:19:22.617Z,102324.95
2023-01-24T14:22:10.552Z,102323.57
2023-01-24T14:25:07.010Z,102321.25
2023-01-24T14:27:38.655Z,102326.00
2023-01-24T14:30:19.727Z,102326.03
2023-01-24T14:32:53.222Z,102332.11
2023-01-24T14:35:36.491Z,102335.23
2023-01-24T14:38:19.366Z,102335.27
2023-01-24T14:40:55.626Z,102336.98
2023-01-24T14:43:29.756Z,102339.64
2023-01-24T14:45:58.874Z,102338.16
2023-01-24T14:48:27.840Z,102338.26
2023-01-24T14:51:00.686Z,102339.08
2023-01-24T14:53:31.566Z,102343.58
2023-01-24T14:56:04.398Z,102346.40
2023-01-24T14:58:33.233Z,102347.84
2023-01-24T15:01:03.647Z,102350.45
2023-01-24T15:03:35.181Z,102350.17
2023-01-24T15:06:06.941Z,102353.52
2023-01-24T15:08:36.388Z,102358.91
2023-01-24T15:11:18.061Z,102355.55
2023-01-24T15:13:52.207Z,102355.10
2023-01-24T15:16:25.200Z,102352.89
2023-01-24T15:18:56.248Z,102349.30
2023-01-24T15:21:44.296Z,102345.50
2023-01-24T15:24:24.118Z,102341.23
2023-01-24T15:26:54.123Z,102338.41
2023-01-24T15:29:38.884Z,102339.91
2023-01-24T15:32:21.420Z,102339.34
2023-01-24T15:34:50.671Z,102338.64
2023-01-24T15:37:19.813Z,102341.46
2023-01-24T15:39:58.487Z,102344.33
2023-01-24T15:42:46.376Z,102342.85
2023-01-24T15:45:21.507Z,102343.38
2023-01-24T15:48:14.306Z,102343.15
2023-01-24T15:51:12.681Z,102336.38
2023-01-24T15:53:44.271Z,102335.33
2023-01-24T15:56:35.411Z,102338.17
2023-01-24T15:59:13.727Z,102337.48
2023-01-24T16:01:42.701Z,102336.24
2023-01-24T16:04:16.802Z,102337.11
2023-01-24T16:06:46.249Z,102341.42
2023-01-24T16:09:15.483Z,102342.85
2023-01-24T16:11:47.014Z,102344.17
2023-01-24T16:14:19.506Z,102344.89
2023-01-24T16:16:49.223Z,102353.16
2023-01-24T16:19:21.074Z,102350.15
2023-01-24T16:21:49.749Z,102340.15
2023-01-24T16:24:19.000Z,102339.95
2023-01-24T16:26:52.268Z,102335.31
2023-01-24T16:29:24.372Z,102333.09
2023-01-24T16:31:53.432Z,102328.73
2023-01-24T16:34:23.351Z,102333.35
2023-01-24T16:36:52.401Z,102331.28
2023-01-24T16:39:22.874Z,102334.39
2023-01-24T16:41:52.098Z,102330.48
2023-01-24T16:44:21.820Z,102336.30
2023-01-24T16:46:51.739Z,102334.88
2023-01-24T16:49:20.658Z,102334.09
2023-01-24T16:51:52.409Z,102335.55
2023-01-24T16:54:22.224Z,102334.75
2023-01-24T16:56:51.106Z,102332.83
2023-01-24T16:59:20.304Z,102336.62
2023-01-24T17:01:49.408Z,102338.69
2023-01-24T17:04:18.526Z,102338.89
2023-01-24T17:06:48.311Z,102343.16
2023-01-24T17:09:19.326Z,102344.82
2023-01-24T17:11:49.413Z,102344.52
2023-01-24T17:14:20.325Z,102342.15
2023-01-24T17:16:50.132Z,102343.02
2023-01-24T17:19:19.423Z,102333.61
2023-01-24T17:21:49.243Z,102334.52
2023-01-24T17:24:19.015Z,102337.90
2023-01-24T17:26:50.128Z,102334.73
2023-01-24T17:29:20.449Z,102334.35
2023-01-24T17:31:50.785Z,102330.42
2023-01-24T17:34:20.436Z,102335.86
2023-01-24T17:36:52.831Z,102335.53
2023-01-24T17:39:24.812Z,102332.02
2023-01-24T17:41:54.971Z,102335.08
2023-01-24T17:44:24.606Z,102334.84
2023-01-24T17:46:54.454Z,102333.92
2023-01-24T17:49:25.406Z,102327.59
2023-01-24T17:51:58.637Z,102330.01
2023-01-24T17:54:29.249Z,102335.21
2023-01-24T17:56:59.627Z,102336.00
2023-01-24T17:59:29.443Z,102335.05
2023-01-24T18:02:00.756Z,102339.90
2023-01-24T18:04:37.144Z,102341.54
2023-01-24T18:07:08.013Z,102343.71
2023-01-24T18:09:40.507Z,102343.15
2023-01-24T18:20:12.855Z,102351.86
2023-01-24T18:27:24.216Z,102350.46
2023-01-24T18:29:54.906Z,102355.25
2023-01-24T18:32:25.533Z,102354.58
2023-01-24T18:34:55.771Z,102357.05
2023-01-24T18:37:26.609Z,102357.06
2023-01-24T18:39:57.255Z,102354.78
2023-01-24T18:42:29.103Z,102353.20
2023-01-24T18:45:00.247Z,102349.67
2023-01-24T18:47:32.249Z,102347.36
2023-01-24T18:50:06.593Z,102352.59
2023-01-24T18:52:37.204Z,102350.15
2023-01-24T18:55:08.655Z,102354.27
2023-01-24T18:57:44.504Z,102355.76
2023-01-24T19:00:16.543Z,102354.83
2023-01-24T19:02:52.586Z,102356.00
2023-01-24T19:05:23.925Z,102351.55
2023-01-24T19:07:55.417Z,102353.23
2023-01-24T19:10:27.809Z,102352.11
2023-01-24T19:12:58.913Z,102350.66
2023-01-24T19:15:28.681Z,102344.54
2023-01-24T19:17:58.808Z,102340.80
2023-01-24T19:20:29.551Z,102342.23
2023-01-24T19:23:00.488Z,102339.45
2023-01-24T19:25:32.725Z,102336.17
2023-01-24T19:28:03.552Z,102332.52
2023-01-24T19:30:34.356Z,102328.00
2023-01-24T19:33:06.169Z,102323.73
2023-01-24T19:35:37.800Z,102319.86
2023-01-24T19:38:08.571Z,102325.14
2023-01-24T19:40:41.434Z,102325.20
2023-01-24T19:43:12.401Z,102322.30
2023-01-24T19:45:47.147Z,102325.80
2023-01-24T19:48:17.147Z,102326.09
2023-01-24T19:50:51.022Z,102329.20
2023-01-24T19:53:21.484Z,102325.83
2023-01-24T19:55:53.804Z,102330.97
2023-01-24T19:58:25.001Z,102331.55
2023-01-24T20:00:56.601Z,102335.98
2023-01-24T20:03:28.379Z,102341.87
2023-01-24T20:05:59.019Z,102344.89
2023-01-24T20:08:29.590Z,102347.05
2023-01-24T20:11:01.715Z,102346.98
2023-01-24T20:13:36.046Z,102347.88
2023-01-24T20:16:17.617Z,102351.98
2023-01-24T20:18:56.054Z,102351.02
2023-01-24T20:21:30.691Z,102345.69
2023-01-24T20:24:03.156Z,102340.03
2023-01-24T20:26:34.989Z,102344.89
2023-01-24T20:29:09.595Z,102344.03
2023-01-24T20:31:41.131Z,102350.99
2023-01-24T20:34:12.448Z,102345.86
2023-01-24T20:36:42.996Z,102347.45
2023-01-24T20:39:16.350Z,102352.54
2023-01-24T20:41:49.815Z,102352.58
2023-01-24T20:44:27.982Z,102350.59
2023-01-24T20:46:59.260Z,102348.20
2023-01-24T20:49:30.958Z,102349.70
2023-01-24T20:52:03.415Z,102351.86
2023-01-24T20:54:32.307Z,102352.15
2023-01-24T20:57:02.439Z,102355.45
2023-01-24T20:59:33.937Z,102351.25
2023-01-24T21:02:04.404Z,102344.05
2023-01-24T21:04:34.341Z,102338.67
2023-01-24T21:07:13.553Z,102336.59
2023-01-24T21:09:43.857Z,102338.68
2023-01-24T21:12:14.526Z,102338.65
2023-01-24T21:14:44.500Z,102336.38
2023-01-24T21:17:17.823Z,102333.63
2023-01-24T21:19:48.979Z,102330.02
2023-01-24T21:22:19.595Z,102328.34
2023-01-24T21:24:49.793Z,102329.70
2023-01-24T21:27:19.753Z,102325.46
2023-01-24T21:29:50.130Z,102326.00
2023-01-24T21:32:20.363Z,102324.27
2023-01-24T21:34:50.094Z,102320.83
2023-01-24T21:37:28.162Z,102318.39
2023-01-24T21:39:58.853Z,102326.77
2023-01-24T21:42:29.481Z,102333.80
2023-01-24T21:44:59.016Z,102335.89
2023-01-24T21:47:29.206Z,102339.03
2023-01-24T21:49:58.174Z,102340.02
2023-01-24T21:52:26.963Z,102340.85
2023-01-24T21:54:56.634Z,102343.36
2023-01-24T21:57:44.506Z,102341.17
2023-01-24T22:00:13.901Z,102336.78
2023-01-24T22:02:43.209Z,102328.91
2023-01-24T22:05:12.377Z,102325.47
2023-01-24T22:07:41.755Z,102327.64
2023-01-24T22:10:13.477Z,102324.58
2023-01-24T22:12:42.903Z,102325.37
2023-01-24T22:15:16.568Z,102328.02
2023-01-24T22:17:45.973Z,102329.08
2023-01-24T22:20:18.159Z,102326.79
2023-01-24T22:23:03.604Z,102329.11
2023-01-24T22:25:37.347Z,102330.07
2023-01-24T22:28:09.031Z,102329.54
2023-01-24T22:30:39.206Z,102328.98
2023-01-24T22:33:09.530Z,102325.80
2023-01-24T22:35:39.240Z,102324.05
2023-01-24T22:38:08.023Z,102322.50
2023-01-24T22:40:36.944Z,102319.22
2023-01-24T22:43:06.005Z,102316.87
2023-01-24T22:45:34.997Z,102314.23
2023-01-24T22:48:12.404Z,102312.64
2023-01-24T22:50:42.105Z,102316.02
2023-01-24T22:53:11.801Z,102318.33
2023-01-24T22:55:41.382Z,102312.98
2023-01-24T22:58:09.988Z,102315.88
2023-01-24T23:00:38.853Z,102310.18
2023-01-24T23:03:07.780Z,102312.40
2023-01-24T23:05:36.732Z,102308.27
2023-01-24T23:08:05.992Z,102304.42
2023-01-24T23:10:34.865Z,102305.88
2023-01-24T23:13:22.180Z,102304.98
2023-01-24T23:16:11.925Z,102302.59
2023-01-24T23:19:00.015Z,102305.71
2023-01-24T23:21:30.675Z,102302.17
2023-01-24T23:24:00.649Z,102299.66
2023-01-24T23:26:30.759Z,102301.24
2023-01-24T23:29:12.340Z,102302.02
2023-01-24T23:31:41.094Z,102299.38
2023-01-24T23:34:38.005Z,102299.67
2023-01-24T23:37:53.690Z,102294.54
2023-01-24T23:40:22.369Z,102295.18
2023-01-24T23:42:51.244Z,102295.23
2023-01-24T23:45:20.748Z,102295.14
2023-01-24T23:47:49.448Z,102293.95
2023-01-24T23:50:18.448Z,102288.79
2023-01-24T23:52:47.410Z,102285.02
2023-01-24T23:55:16.101Z,102287.34
2023-01-24T23:57:44.889Z,102283.11
